Winslow, Indiana
Current Conditions -  °F | °C
As of 5:55 PM on Sunday 23 Nov 2014 (Local Time) from KHNB Reporting Station
Overcast Overcast  
Wind Chill: 54°   Ceiling: 900
Heat Index: 54°   Visibility: 10mi
Dew Point: 52°   Wind: 18mph
Humidity: 94%   Direction: 140°SE
Pressure: 29.33"   Gusts: 24mph
Location:  38.38°N, 87.21°W
Report Text: KHNB 232355Z AUTO 14016G21KT 10SM BKN009 OVC017 12/11 A2933 RMK AO1 P0008 60053 10130 20120 57051
Loading
Personal Weather Stations






























Interactive Weather Map New forecast layout! Learn more

10-Day Weather Forecast

Advertisements
Track Severe Weather on mobile